Time;durP1;ratioP1;P1;durP2;ratioP2;P2;SDS_P1;SDS_P2;PMS_P1;PMS_P2;Temp;Humidity;BMP_temperature;BMP_pressure;BME280_temperature;BME280_humidity;BME280_pressure;Samples;Min_cycle;Max_cycle;Signal;HPM_P1;HPM_P2
2022/10/12 00:00:14;;;;;;;0.20;0.20;;;;;;;4.14;100.00;102493.09;5039492;28;20457;-74
2022/10/12 00:02:41;;;;;;;0.10;0.10;;;;;;;4.07;100.00;102473.78;5035984;28;20545;-74
2022/10/12 00:05:06;;;;;;;0.10;0.10;;;;;;;4.28;100.00;102493.63;5040694;28;20237;-74
2022/10/12 00:07:32;;;;;;;0.15;0.15;;;;;;;4.08;100.00;102453.38;5039603;28;20387;-74
2022/10/12 00:09:57;;;;;;;0.10;0.10;;;;;;;4.09;100.00;102458.66;5036048;28;20055;-74
2022/10/12 00:12:22;;;;;;;0.13;0.13;;;;;;;4.07;100.00;102463.13;5022383;28;20029;-74
2022/10/12 00:14:48;;;;;;;0.10;0.10;;;;;;;4.08;100.00;102469.31;5022488;28;20036;-74
2022/10/12 00:17:13;;;;;;;0.10;0.10;;;;;;;4.05;100.00;102459.66;5036780;28;20029;-74
2022/10/12 00:19:39;;;;;;;0.20;0.20;;;;;;;4.18;100.00;102485.00;5034331;28;20033;-74
2022/10/12 00:22:04;;;;;;;0.10;0.10;;;;;;;4.12;100.00;102476.31;5034519;28;20039;-75
2022/10/12 00:24:29;;;;;;;0.13;0.13;;;;;;;4.12;100.00;102479.81;5036296;28;20025;-74
2022/10/12 00:26:55;;;;;;;0.10;0.10;;;;;;;3.79;100.00;102445.19;5033320;28;20033;-75
2022/10/12 00:29:20;;;;;;;0.10;0.10;;;;;;;3.92;100.00;102492.72;5037512;28;20060;-75
2022/10/12 00:31:45;;;;;;;0.17;0.17;;;;;;;3.87;100.00;102493.69;5039482;28;20368;-74
2022/10/12 00:34:11;;;;;;;0.20;0.20;;;;;;;3.78;100.00;102474.44;5033150;28;20502;-74
2022/10/12 00:36:36;;;;;;;0.10;0.10;;;;;;;3.85;100.00;102490.19;5040128;28;20112;-74
2022/10/12 00:39:04;;;;;;;0.10;0.10;;;;;;;3.80;100.00;102462.88;5033981;28;20124;-74
2022/10/12 00:41:31;;;;;;;0.10;0.10;;;;;;;3.74;100.00;102457.72;5024650;28;20067;-74
2022/10/12 00:43:57;;;;;;;0.10;0.10;;;;;;;3.80;100.00;102470.84;5034654;28;20029;-74
2022/10/12 00:46:34;;;;;;;0.10;0.10;;;;;;;4.04;100.00;102488.00;5038205;28;20039;-74
2022/10/12 00:49:05;;;;;;;0.10;0.10;;;;;;;4.07;100.00;102503.00;5055365;28;20454;-74
2022/10/12 00:51:31;;;;;;;0.10;0.10;;;;;;;3.94;100.00;102486.47;5037218;28;20488;-74
2022/10/12 00:54:03;;;;;;;0.10;0.10;;;;;;;4.02;100.00;102499.59;5033476;28;20025;-74
2022/10/12 00:56:31;;;;;;;0.10;0.10;;;;;;;3.77;100.00;102451.44;5033816;28;20087;-74
2022/10/12 00:58:59;;;;;;;0.10;0.10;;;;;;;3.78;100.00;102446.09;5037856;28;20040;-75
2022/10/12 01:01:25;;;;;;;0.10;0.10;;;;;;;3.87;100.00;102477.75;5056365;28;20502;-74
2022/10/12 01:03:50;;;;;;;0.13;0.13;;;;;;;3.65;100.00;102453.47;5036986;28;20032;-74
2022/10/12 01:06:16;;;;;;;0.10;0.10;;;;;;;3.96;100.00;102505.03;5036275;28;20033;-75
2022/10/12 01:08:41;;;;;;;0.13;0.13;;;;;;;4.01;100.00;102493.38;5011330;28;20506;-74
2022/10/12 01:11:06;;;;;;;0.10;0.10;;;;;;;4.00;100.00;102482.78;5038427;28;20371;-74
2022/10/12 01:13:32;;;;;;;0.10;0.10;;;;;;;3.82;100.00;102461.06;5033996;28;20787;-74
2022/10/12 01:16:11;;;;;;;0.10;0.10;;;;;;;4.01;100.00;102497.84;5037360;28;20044;-74
2022/10/12 01:18:45;;;;;;;0.10;0.10;;;;;;;3.95;100.00;102485.56;5033302;28;20429;-74
2022/10/12 01:21:18;;;;;;;0.20;0.20;;;;;;;3.82;100.00;102477.00;5035477;28;20401;-74
2022/10/12 01:24:00;;;;;;;0.20;0.20;;;;;;;3.92;100.00;102480.31;5036587;28;20113;-74
2022/10/12 01:26:31;;;;;;;0.10;0.10;;;;;;;3.92;100.00;102477.66;5037403;28;20051;-75
2022/10/12 01:29:15;;;;;;;0.10;0.10;;;;;;;3.93;100.00;102468.78;5034811;28;20028;-74
2022/10/12 01:31:52;;;;;;;0.10;0.10;;;;;;;3.75;100.00;102428.44;5039754;28;20074;-74
2022/10/12 01:34:41;;;;;;;0.10;0.10;;;;;;;3.86;100.00;102444.13;5038499;28;20413;-75
2022/10/12 01:37:33;;;;;;;0.10;0.10;;;;;;;4.06;100.00;102464.06;5040265;28;20534;-74
2022/10/12 01:39:59;;;;;;;0.10;0.10;;;;;;;4.01;100.00;102442.88;5038225;28;20483;-74
2022/10/12 01:42:31;;;;;;;0.10;0.10;;;;;;;4.15;100.00;102452.31;5044045;28;20029;-74
2022/10/12 01:45:04;;;;;;;0.15;0.15;;;;;;;3.97;100.00;102427.06;5042754;28;20150;-75
2022/10/12 01:47:30;;;;;;;0.20;0.20;;;;;;;3.85;100.00;102397.19;5036975;28;20075;-74
2022/10/12 01:49:56;;;;;;;0.10;0.10;;;;;;;4.21;100.00;102452.16;5044039;28;20031;-74
2022/10/12 01:52:27;;;;;;;0.10;0.10;;;;;;;4.11;100.00;102427.56;5046657;28;20032;-74
2022/10/12 01:55:04;;;;;;;0.20;0.20;;;;;;;4.18;100.00;102444.25;5042610;28;20067;-74
2022/10/12 01:57:44;;;;;;;0.20;0.20;;;;;;;4.23;100.00;102436.16;5039858;28;20049;-74
2022/10/12 02:00:12;;;;;;;0.10;0.10;;;;;;;4.22;100.00;102434.41;5042861;28;20061;-74
2022/10/12 02:02:44;;;;;;;0.20;0.20;;;;;;;4.21;100.00;102433.56;5046166;28;20686;-74
2022/10/12 02:05:37;;;;;;;0.10;0.10;;;;;;;4.23;100.00;102436.16;5044014;28;20033;-74
2022/10/12 02:08:18;;;;;;;0.10;0.10;;;;;;;4.22;100.00;102429.97;5043286;28;20033;-74
2022/10/12 02:10:49;;;;;;;0.10;0.10;;;;;;;4.04;100.00;102399.41;5037383;28;20028;-74
2022/10/12 02:13:17;;;;;;;0.15;0.15;;;;;;;4.14;100.00;102421.31;5038193;28;20052;-74
2022/10/12 02:15:43;;;;;;;0.10;0.10;;;;;;;4.19;100.00;102428.25;5038036;28;20025;-74
2022/10/12 02:18:12;;;;;;;0.13;0.13;;;;;;;4.18;100.00;102418.53;5045833;28;20695;-74
2022/10/12 02:20:37;;;;;;;0.20;0.20;;;;;;;4.18;100.00;102423.84;5046195;28;20068;-74
2022/10/12 02:23:03;;;;;;;0.10;0.10;;;;;;;4.08;100.00;102401.09;5040983;28;20057;-74
2022/10/12 02:25:29;;;;;;;0.10;0.10;;;;;;;4.18;100.00;102421.19;5040479;28;20125;-74
2022/10/12 02:28:02;;;;;;;0.20;0.20;;;;;;;4.00;100.00;102397.75;5043760;28;20128;-74
2022/10/12 02:30:30;;;;;;;0.10;0.10;;;;;;;4.05;100.00;102398.50;5035925;28;20055;-74
2022/10/12 02:33:05;;;;;;;0.15;0.15;;;;;;;4.18;100.00;102418.53;5042302;28;20774;-74
2022/10/12 02:35:48;;;;;;;0.10;0.10;;;;;;;3.99;100.00;102380.91;5040908;28;20155;-74
2022/10/12 02:38:35;;;;;;;0.10;0.10;;;;;;;4.17;100.00;102418.59;5041326;28;20032;-75
2022/10/12 02:41:19;;;;;;;0.10;0.10;;;;;;;4.09;100.00;102400.19;5025523;28;20032;-75
2022/10/12 02:43:57;;;;;;;0.10;0.10;;;;;;;4.16;100.00;102415.03;5039917;28;20025;-75
2022/10/12 02:46:23;;;;;;;0.10;0.10;;;;;;;4.19;100.00;102416.75;5038753;28;20040;-75
2022/10/12 02:48:49;;;;;;;0.10;0.10;;;;;;;4.15;100.00;102410.63;5040518;28;20253;-74
2022/10/12 02:51:15;;;;;;;0.10;0.10;;;;;;;3.94;100.00;102403.22;5022776;28;20017;-74
2022/10/12 02:53:40;;;;;;;0.10;0.10;;;;;;;3.72;100.00;102409.03;5038589;28;20062;-74
2022/10/12 02:56:10;;;;;;;0.10;0.10;;;;;;;3.79;100.00;102415.06;5023641;28;20028;-75
2022/10/12 02:58:36;;;;;;;0.13;0.13;;;;;;;3.69;100.00;102390.53;5036208;28;20498;-75
2022/10/12 03:01:01;;;;;;;0.20;0.20;;;;;;;3.79;100.00;102399.13;5041809;28;20037;-74
2022/10/12 03:03:27;;;;;;;0.10;0.10;;;;;;;3.85;100.00;102407.81;5025931;28;20394;-74
2022/10/12 03:05:52;;;;;;;0.10;0.10;;;;;;;3.85;100.00;102399.00;5040733;28;20025;-74
2022/10/12 03:08:18;;;;;;;0.20;0.20;;;;;;;3.70;100.00;102392.28;5039428;28;20031;-74
2022/10/12 03:10:43;;;;;;;0.10;0.10;;;;;;;3.83;100.00;102392.84;5023010;28;20108;-75
2022/10/12 03:13:08;;;;;;;0.10;0.10;;;;;;;3.93;100.00;102401.47;5043237;28;20021;-74
2022/10/12 03:15:34;;;;;;;0.20;0.20;;;;;;;3.99;100.00;102402.16;5041692;28;20055;-75
2022/10/12 03:17:59;;;;;;;0.10;0.10;;;;;;;3.71;100.00;102357.69;5043572;28;20039;-74
2022/10/12 03:20:24;;;;;;;0.13;0.13;;;;;;;3.98;100.00;102397.75;5046364;28;20751;-75
2022/10/12 03:22:50;;;;;;;0.10;0.10;;;;;;;3.83;100.00;102390.19;5043478;28;20032;-75
2022/10/12 03:25:15;;;;;;;0.10;0.10;;;;;;;3.80;100.00;102392.91;5040384;28;20455;-74
2022/10/12 03:27:40;;;;;;;0.10;0.10;;;;;;;3.79;100.00;102394.72;5025362;28;20025;-74
2022/10/12 03:30:06;;;;;;;0.10;0.10;;;;;;;3.71;100.00;102378.06;5042463;28;20032;-74
2022/10/12 03:32:32;;;;;;;0.10;0.10;;;;;;;3.73;100.00;102381.56;5042296;28;20044;-75
2022/10/12 03:34:57;;;;;;;0.13;0.13;;;;;;;3.80;100.00;102395.56;5022707;28;20044;-74
2022/10/12 03:37:22;;;;;;;0.10;0.10;;;;;;;3.64;100.00;102379.13;5043356;28;20060;-74
2022/10/12 03:39:48;;;;;;;0.20;0.20;;;;;;;3.55;100.00;102365.19;5041302;28;20028;-74
2022/10/12 03:42:13;;;;;;;0.10;0.10;;;;;;;3.52;100.00;102377.63;5036052;28;20065;-74
2022/10/12 03:44:38;;;;;;;0.10;0.10;;;;;;;3.38;100.00;102386.81;5042878;28;20066;-74
2022/10/12 03:47:04;;;;;;;0.10;0.10;;;;;;;3.31;100.00;102393.16;5042044;28;20116;-74
2022/10/12 03:49:29;;;;;;;0.20;0.20;;;;;;;3.22;100.00;102388.94;5043895;28;20021;-75
2022/10/12 03:51:54;;;;;;;0.10;0.10;;;;;;;3.22;100.00;102394.25;5040779;28;20467;-74
2022/10/12 03:54:20;;;;;;;0.10;0.10;;;;;;;3.23;100.00;102396.00;5043246;28;20033;-76
2022/10/12 03:56:45;;;;;;;0.10;0.10;;;;;;;3.19;100.00;102398.72;5036530;28;21030;-75
2022/10/12 03:59:10;;;;;;;0.10;0.10;;;;;;;3.05;100.00;102380.44;5039394;28;20483;-74
2022/10/12 04:01:36;;;;;;;0.10;0.10;;;;;;;3.09;100.00;102392.75;5040989;28;20024;-74
2022/10/12 04:04:01;;;;;;;0.20;0.20;;;;;;;3.02;100.00;102381.38;5041065;28;20031;-74
2022/10/12 04:06:27;;;;;;;0.10;0.10;;;;;;;2.93;100.00;102363.00;5042519;28;20056;-74
2022/10/12 04:08:52;;;;;;;0.28;0.28;;;;;;;3.03;100.00;102383.13;5036835;28;20147;-74
2022/10/12 04:11:19;;;;;;;0.20;0.20;;;;;;;2.98;100.00;102383.25;5040007;28;20036;-74
2022/10/12 04:13:44;;;;;;;0.20;0.20;;;;;;;2.95;100.00;102378.00;5037526;28;20048;-74
2022/10/12 04:16:09;;;;;;;0.10;0.10;;;;;;;2.93;100.00;102363.00;5044009;28;20068;-74
2022/10/12 04:18:35;;;;;;;0.10;0.10;;;;;;;2.88;100.00;102347.19;5042405;28;20063;-74
2022/10/12 04:21:00;;;;;;;0.10;0.10;;;;;;;3.05;100.00;102375.13;5043461;28;20064;-74
2022/10/12 04:23:26;;;;;;;0.10;0.10;;;;;;;3.12;100.00;102384.72;5021054;28;20116;-74
2022/10/12 04:25:51;;;;;;;0.10;0.10;;;;;;;3.00;100.00;102368.16;5037971;28;20031;-74
2022/10/12 04:28:17;;;;;;;0.22;0.22;;;;;;;2.96;100.00;102360.28;5025078;28;20032;-74
2022/10/12 04:30:43;;;;;;;0.20;0.20;;;;;;;2.83;100.00;102344.66;5023969;28;20116;-74
2022/10/12 04:33:08;;;;;;;0.10;0.10;;;;;;;2.88;100.00;102355.16;5034557;28;20021;-74
2022/10/12 04:35:34;;;;;;;0.15;0.15;;;;;;;3.04;100.00;102376.94;5037857;28;20036;-74
2022/10/12 04:37:59;;;;;;;0.10;0.10;;;;;;;2.81;100.00;102332.31;5038206;28;20041;-74
2022/10/12 04:40:24;;;;;;;0.20;0.20;;;;;;;2.92;100.00;102358.59;5024331;28;20045;-74
2022/10/12 04:42:50;;;;;;;0.20;0.20;;;;;;;2.67;100.00;102327.28;5035838;28;20128;-74
2022/10/12 04:45:16;;;;;;;0.20;0.20;;;;;;;2.96;100.00;102381.50;5034953;28;20047;-74
2022/10/12 04:47:41;;;;;;;0.20;0.20;;;;;;;2.77;100.00;102351.88;5022973;28;20052;-74
2022/10/12 04:50:07;;;;;;;0.10;0.10;;;;;;;2.84;100.00;102374.69;5022707;28;20385;-72
2022/10/12 04:52:32;;;;;;;0.17;0.17;;;;;;;2.79;100.00;102384.50;5040794;28;20017;-75
2022/10/12 04:54:57;;;;;;;0.10;0.10;;;;;;;2.63;100.00;102366.28;5039185;28;20036;-72
2022/10/12 04:57:23;;;;;;;0.10;0.10;;;;;;;2.42;100.00;102340.19;5040179;28;20043;-76
2022/10/12 04:59:48;;;;;;;0.10;0.10;;;;;;;2.53;100.00;102356.72;5037160;28;20754;-73
2022/10/12 05:02:14;;;;;;;0.20;0.20;;;;;;;2.67;100.00;102381.22;5038473;28;20076;-73
2022/10/12 05:04:39;;;;;;;0.20;0.20;;;;;;;2.50;100.00;102359.47;5044520;28;20043;-73
2022/10/12 05:07:05;;;;;;;0.20;0.20;;;;;;;2.39;100.00;102343.75;5043955;28;20032;-73
2022/10/12 05:09:30;;;;;;;0.10;0.10;;;;;;;2.45;100.00;102356.88;5043376;28;20103;-73
2022/10/12 05:11:55;;;;;;;0.10;0.10;;;;;;;2.30;100.00;102336.84;5039532;28;20056;-73
2022/10/12 05:14:20;;;;;;;0.15;0.15;;;;;;;2.60;100.00;102379.59;5020393;28;20429;-73
2022/10/12 05:16:46;;;;;;;0.20;0.20;;;;;;;2.58;100.00;102356.66;5045158;28;20111;-73
2022/10/12 05:19:11;;;;;;;0.10;0.10;;;;;;;2.63;100.00;102357.44;5028914;28;20195;-73
2022/10/12 05:21:38;;;;;;;0.15;0.15;;;;;;;2.75;100.00;102365.16;5044978;28;20475;-73
2022/10/12 05:24:04;;;;;;;0.10;0.10;;;;;;;2.74;100.00;102359.88;5043576;28;20074;-73
2022/10/12 05:26:29;;;;;;;0.10;0.10;;;;;;;2.58;100.00;102331.00;5047028;28;20036;-73
2022/10/12 05:28:55;;;;;;;0.30;0.30;;;;;;;2.54;100.00;102334.63;5048070;28;20321;-73
2022/10/12 05:31:20;;;;;;;0.10;0.10;;;;;;;2.75;100.00;102361.63;5046729;28;20033;-72
2022/10/12 05:33:45;;;;;;;0.20;0.20;;;;;;;2.69;100.00;102365.25;5045968;28;20479;-73
2022/10/12 05:36:10;;;;;;;0.10;0.10;;;;;;;2.64;100.00;102341.50;5027474;28;20064;-73
2022/10/12 05:38:36;;;;;;;0.10;0.10;;;;;;;2.61;100.00;102338.03;5043031;28;20090;-73
2022/10/12 05:41:01;;;;;;;0.10;0.10;;;;;;;2.64;100.00;102338.00;5044812;28;20119;-73
2022/10/12 05:43:27;;;;;;;0.20;0.20;;;;;;;2.64;100.00;102351.25;5034809;28;20055;-73
2022/10/12 05:45:52;;;;;;;0.10;0.10;;;;;;;2.57;100.00;102350.47;5044781;28;20021;-73
2022/10/12 05:48:18;;;;;;;0.10;0.10;;;;;;;2.57;100.00;102346.97;5043403;28;20032;-73
2022/10/12 05:50:43;;;;;;;0.10;0.10;;;;;;;2.68;100.00;102374.13;5043616;28;20025;-72
2022/10/12 05:53:08;;;;;;;0.10;0.10;;;;;;;2.50;100.00;102349.72;5036754;28;20083;-73
2022/10/12 05:55:33;;;;;;;0.10;0.10;;;;;;;2.52;100.00;102354.97;5041091;28;20068;-73
2022/10/12 05:57:59;;;;;;;0.10;0.10;;;;;;;2.49;100.00;102352.41;5045141;28;20525;-73
2022/10/12 06:00:24;;;;;;;0.30;0.30;;;;;;;2.40;100.00;102345.50;5041956;28;20037;-72
2022/10/12 06:02:50;;;;;;;0.10;0.10;;;;;;;2.43;100.00;102355.19;5047541;28;20043;-73
2022/10/12 06:05:16;;;;;;;0.10;0.10;;;;;;;2.59;100.00;102375.19;5034897;28;20455;-72
2022/10/12 06:07:41;;;;;;;0.20;0.20;;;;;;;2.47;100.00;102352.44;5032107;28;20028;-73
2022/10/12 06:10:07;;;;;;;0.10;0.10;;;;;;;2.50;100.00;102359.47;5039186;28;20025;-73
2022/10/12 06:12:32;;;;;;;0.10;0.10;;;;;;;2.45;100.00;102340.97;5028594;28;20036;-73
2022/10/12 06:14:57;;;;;;;0.10;0.10;;;;;;;2.66;100.00;102366.22;5042915;28;20033;-73
2022/10/12 06:17:23;;;;;;;0.20;0.20;;;;;;;2.55;100.00;102345.22;5042799;28;20035;-73
2022/10/12 06:19:48;;;;;;;0.17;0.17;;;;;;;2.51;100.00;102342.66;5042513;28;20028;-73
2022/10/12 06:22:14;;;;;;;0.10;0.10;;;;;;;2.51;100.00;102353.28;5044298;28;20107;-74
2022/10/12 06:24:39;;;;;;;0.10;0.10;;;;;;;2.50;100.00;102336.47;5040753;28;20152;-73
2022/10/12 06:27:04;;;;;;;0.10;0.10;;;;;;;2.71;100.00;102358.16;5035839;28;20024;-73
2022/10/12 06:29:30;;;;;;;0.20;0.20;;;;;;;2.77;100.00;102358.03;5026041;28;20551;-73
2022/10/12 06:31:55;;;;;;;0.20;0.20;;;;;;;2.62;100.00;102326.53;5041922;28;20029;-72
2022/10/12 06:34:20;;;;;;;0.10;0.10;;;;;;;2.95;100.00;102369.16;5040327;28;20490;-72
2022/10/12 06:36:46;;;;;;;0.10;0.10;;;;;;;2.91;100.00;102330.34;5026025;28;20055;-73
2022/10/12 06:39:11;;;;;;;0.10;0.10;;;;;;;3.02;100.00;102323.00;5038750;28;20147;-73
2022/10/12 06:41:37;;;;;;;0.20;0.20;;;;;;;3.26;100.00;102333.97;5042204;28;20032;-73
2022/10/12 06:44:03;;;;;;;0.10;0.10;;;;;;;3.50;100.00;102344.94;5045520;28;20064;-73
2022/10/12 06:46:28;;;;;;;0.20;0.10;;;;;;;3.54;100.00;102328.91;5041156;28;20036;-73
2022/10/12 06:48:53;;;;;;;0.10;0.10;;;;;;;3.61;100.00;102319.00;5040552;28;20044;-73
2022/10/12 06:51:19;;;;;;;0.10;0.10;;;;;;;3.83;100.00;102351.22;5043402;28;20505;-73
2022/10/12 06:53:44;;;;;;;0.10;0.10;;;;;;;3.81;100.00;102336.22;5040007;28;20061;-73
2022/10/12 06:56:10;;;;;;;0.10;0.10;;;;;;;3.91;100.00;102337.72;5041303;28;20067;-73
2022/10/12 06:58:36;;;;;;;0.10;0.10;;;;;;;4.11;100.00;102361.09;5024885;28;20057;-73
2022/10/12 07:01:06;;;;;;;0.20;0.20;;;;;;;4.12;100.00;102330.97;5026154;28;20123;-73
2022/10/12 07:03:32;;;;;;;0.10;0.10;;;;;;;4.33;100.00;102350.78;5042451;28;20056;-73
2022/10/12 07:06:11;;;;;;;0.10;0.10;;;;;;;4.56;100.00;102359.06;5041773;28;20143;-73
2022/10/12 07:08:37;;;;;;;0.10;0.10;;;;;;;4.63;100.00;102339.34;5044840;28;20033;-73
2022/10/12 07:11:04;;;;;;;0.20;0.20;;;;;;;4.91;100.00;102360.69;5027369;28;20027;-73
2022/10/12 07:13:31;;;;;;;0.10;0.10;;;;;;;4.92;100.00;102334.94;5046153;28;20024;-73
2022/10/12 07:15:56;;;;;;;0.20;0.20;;;;;;;5.17;100.00;102352.81;5038512;28;20072;-72
2022/10/12 07:18:21;;;;;;;0.10;0.10;;;;;;;5.22;100.00;102341.13;5042124;28;20155;-73
2022/10/12 07:20:47;;;;;;;0.10;0.10;;;;;;;5.29;100.00;102339.13;5040353;28;20040;-73
2022/10/12 07:23:12;;;;;;;0.20;0.20;;;;;;;5.36;100.00;102324.72;5042582;28;20037;-72
2022/10/12 07:25:37;;;;;;;0.20;0.20;;;;;;;5.63;100.00;102351.38;5043012;28;20029;-73
2022/10/12 07:28:05;;;;;;;0.17;0.17;;;;;;;5.70;100.00;102344.91;5038227;28;20032;-74
2022/10/12 07:30:30;;;;;;;0.10;0.10;;;;;;;5.66;100.00;102329.06;5041852;28;20029;-76
2022/10/12 07:32:55;;;;;;;0.10;0.10;;;;;;;5.76;100.00;102329.63;5042737;28;20033;-74
2022/10/12 07:35:21;;;;;;;0.10;0.10;;;;;;;5.80;100.00;102307.28;5027186;28;20036;-75
2022/10/12 07:37:47;;;;;;;0.20;0.20;;;;;;;5.96;100.00;102319.16;5042436;28;20579;-75
2022/10/12 07:40:12;;;;;;;0.10;0.10;;;;;;;6.10;100.00;102336.53;5042622;28;20074;-74
2022/10/12 07:42:38;;;;;;;0.10;0.10;;;;;;;6.13;100.00;102337.28;5041370;28;20059;-77
2022/10/12 07:45:03;;;;;;;0.10;0.10;;;;;;;6.17;100.00;102326.50;5044058;28;20252;-75
2022/10/12 07:47:29;;;;;;;0.20;0.20;;;;;;;6.03;100.00;102303.00;5042975;28;20522;-73
2022/10/12 07:49:54;;;;;;;0.20;0.20;;;;;;;6.25;100.00;102335.09;5026324;28;20032;-74
2022/10/12 07:52:19;;;;;;;0.20;0.20;;;;;;;6.32;100.00;102335.75;5042785;28;20043;-73
2022/10/12 07:54:45;;;;;;;0.20;0.20;;;;;;;6.42;100.00;102339.84;5043220;28;20079;-73
2022/10/12 07:57:10;;;;;;;0.13;0.13;;;;;;;6.45;100.00;102329.91;5024210;28;20112;-73
2022/10/12 07:59:35;;;;;;;0.20;0.20;;;;;;;6.52;100.00;102343.03;5026880;28;20053;-74
2022/10/12 08:02:01;;;;;;;0.10;0.10;;;;;;;6.59;100.00;102341.91;5042106;28;20421;-74
2022/10/12 08:04:26;;;;;;;0.10;0.10;;;;;;;6.58;100.00;102340.16;5025984;28;20124;-74
2022/10/12 08:06:51;;;;;;;0.28;0.28;;;;;;;6.57;100.00;102327.75;5043929;28;20025;-74
2022/10/12 08:09:17;;;;;;;0.10;0.10;;;;;;;6.88;100.00;102366.63;5026746;28;20569;-74
2022/10/12 08:11:42;;;;;;;0.20;0.20;;;;;;;6.78;100.00;102344.72;5042594;28;20028;-74
2022/10/12 08:14:15;;;;;;;0.10;0.10;;;;;;;6.89;100.00;102349.66;5022156;28;20454;-73
2022/10/12 08:16:41;;;;;;;0.20;0.20;;;;;;;7.26;100.00;102360.75;5034116;28;20078;-73
2022/10/12 08:19:07;;;;;;;0.10;0.10;;;;;;;7.07;100.00;102321.38;5043367;28;20025;-74
2022/10/12 08:21:33;;;;;;;0.28;0.28;;;;;;;7.23;100.00;102342.16;5026748;28;20400;-74
2022/10/12 08:23:58;;;;;;;0.10;0.10;;;;;;;7.30;100.00;102363.22;5043848;28;21066;-74
2022/10/12 08:26:23;;;;;;;0.20;0.20;;;;;;;7.26;100.00;102347.38;5043857;28;20059;-74
2022/10/12 08:28:49;;;;;;;0.10;0.10;;;;;;;7.41;100.00;102349.44;5040798;28;20499;-74
2022/10/12 08:31:16;;;;;;;0.13;0.13;;;;;;;7.47;100.00;102353.66;5044332;28;20013;-74
2022/10/12 08:33:41;;;;;;;0.10;0.10;;;;;;;7.48;100.00;102342.91;5040847;28;20048;-74
2022/10/12 08:36:07;;;;;;;0.10;0.10;;;;;;;7.55;100.00;102345.34;5040660;28;20028;-74
2022/10/12 08:38:34;;;;;;;0.10;0.10;;;;;;;7.69;100.00;102350.09;5026760;28;20364;-74
2022/10/12 08:41:30;;;;;;;0.20;0.20;;;;;;;7.85;100.00;102353.88;5043268;28;20120;-74
2022/10/12 08:44:05;;;;;;;0.20;0.20;;;;;;;7.89;100.00;102333.22;5044437;28;20387;-74
2022/10/12 08:46:31;;;;;;;0.00;0.00;;;;;;;8.18;100.00;102352.50;5040784;28;20029;-74
2022/10/12 08:49:06;;;;;;;0.15;0.15;;;;;;;8.38;100.00;102354.31;5042927;28;20467;-75
2022/10/12 08:51:37;;;;;;;0.20;0.20;;;;;;;8.51;100.00;102357.34;5047361;28;20025;-75
2022/10/12 08:54:05;;;;;;;0.10;0.10;;;;;;;8.65;100.00;102354.03;5048495;28;20029;-74
2022/10/12 08:56:33;;;;;;;0.15;0.15;;;;;;;8.70;100.00;102344.00;5039805;28;20841;-78
2022/10/12 08:59:00;;;;;;;0.10;0.10;;;;;;;8.76;100.00;102351.72;5037001;28;20036;-74
2022/10/12 09:01:50;;;;;;;0.20;0.20;;;;;;;8.94;100.00;102357.19;5043345;28;20054;-74
2022/10/12 09:04:44;;;;;;;0.20;0.20;;;;;;;9.24;100.00;102356.69;5041399;28;20073;-75
2022/10/12 09:07:20;;;;;;;;;;;;;;;9.23;100.00;102353.09;5046152;28;20063;-74
2022/10/12 09:10:09;;;;;;;0.20;0.20;;;;;;;9.52;100.00;102353.50;5051420;28;19923;-76
2022/10/12 09:12:50;;;;;;;0.15;0.15;;;;;;;9.57;100.00;102358.63;5049067;28;20299;-76
2022/10/12 09:15:22;;;;;;;0.10;0.10;;;;;;;9.63;99.92;102344.94;5048168;28;20238;-77
2022/10/12 09:17:53;;;;;;;0.20;0.20;;;;;;;9.80;100.00;102360.19;5047497;28;20032;-78
2022/10/12 09:20:20;;;;;;;0.15;0.15;;;;;;;9.98;100.00;102358.38;5044870;28;20028;-73
2022/10/12 09:22:51;;;;;;;0.10;0.10;;;;;;;10.09;98.65;102354.25;5046752;28;20028;-80
2022/10/12 09:25:22;;;;;;;0.13;0.13;;;;;;;10.18;99.73;102357.38;5045090;28;20025;-75
2022/10/12 09:27:47;;;;;;;0.20;0.20;;;;;;;10.48;100.00;102362.06;5047596;28;20063;-74
2022/10/12 09:30:15;;;;;;;0.20;0.20;;;;;;;10.54;97.44;102349.28;5029163;28;20029;-78
2022/10/12 09:33:03;;;;;;;0.20;0.20;;;;;;;10.70;93.99;102327.84;5027904;28;20129;-75
2022/10/12 09:35:28;;;;;;;0.10;0.10;;;;;;;11.08;95.44;102352.59;5048676;28;20032;-78
2022/10/12 09:37:54;;;;;;;0.20;0.20;;;;;;;11.03;93.15;102333.16;5042801;28;20514;-75
2022/10/12 09:40:22;;;;;;;0.10;0.10;;;;;;;11.13;91.37;102320.06;5039857;28;20063;-75
2022/10/12 09:42:48;;;;;;;0.17;0.17;;;;;;;11.59;93.45;102339.91;5043391;28;20455;-75
2022/10/12 09:45:19;;;;;;;0.10;0.10;;;;;;;11.66;88.05;102311.66;5047640;28;20032;-75
2022/10/12 09:48:19;;;;;;;0.00;0.00;;;;;;;12.06;89.97;102354.22;5030041;28;20033;-75
2022/10/12 09:50:47;;;;;;;0.10;0.10;;;;;;;12.28;89.53;102360.06;5042620;28;20353;-75
2022/10/12 09:53:27;;;;;;;0.20;0.20;;;;;;;12.53;86.67;102353.16;5048177;28;20046;-80
2022/10/12 09:55:59;;;;;;;0.10;0.10;;;;;;;12.43;87.43;102328.63;5042143;28;20056;-74
2022/10/12 09:58:25;;;;;;;0.10;0.10;;;;;;;12.40;85.05;102318.03;5039604;28;20040;-76
2022/10/12 10:01:17;;;;;;;0.10;0.10;;;;;;;12.53;86.52;102341.50;5025635;28;20484;-75
2022/10/12 10:03:43;;;;;;;0.17;0.17;;;;;;;12.18;83.46;102333.78;5025318;28;20032;-76
2022/10/12 10:06:08;;;;;;;0.10;0.10;;;;;;;12.13;85.34;102313.38;5041804;28;20075;-77
2022/10/12 10:08:44;;;;;;;0.10;0.10;;;;;;;12.21;86.55;102309.34;5041119;28;20032;-74
2022/10/12 10:11:20;;;;;;;0.10;0.10;;;;;;;12.38;85.13;102311.88;5023795;28;20060;-73
2022/10/12 10:13:51;;;;;;;0.10;0.10;;;;;;;12.75;86.35;102327.56;5042125;28;20029;-74
2022/10/12 10:16:17;;;;;;;0.10;0.10;;;;;;;13.24;85.83;102339.72;5046040;28;20039;-73
2022/10/12 10:19:02;;;;;;;0.15;0.15;;;;;;;13.92;79.51;102339.72;5028074;28;20039;-74
2022/10/12 10:21:32;;;;;;;0.10;0.10;;;;;;;14.51;82.33;102332.97;5040600;28;20036;-74
2022/10/12 10:24:04;;;;;;;0.10;0.10;;;;;;;14.55;77.79;102338.09;5045484;28;20379;-73
2022/10/12 10:26:50;;;;;;;0.15;0.15;;;;;;;14.79;73.01;102326.50;5045342;28;20037;-74
2022/10/12 10:29:20;;;;;;;0.10;0.10;;;;;;;14.88;73.17;102322.28;5045618;28;20048;-75
2022/10/12 10:31:46;;;;;;;0.10;0.10;;;;;;;15.39;73.90;102310.41;5046615;28;20025;-73
2022/10/12 10:34:15;;;;;;;0.10;0.10;;;;;;;15.78;72.44;102317.47;5046170;28;20071;-73
2022/10/12 10:36:49;;;;;;;0.10;0.10;;;;;;;16.00;70.30;102306.72;5045934;28;20522;-71
2022/10/12 10:39:24;;;;;;;0.10;0.10;;;;;;;16.03;70.42;102282.09;5042033;28;20029;-74
2022/10/12 10:41:50;;;;;;;0.10;0.10;;;;;;;16.68;71.75;102296.94;5046339;28;20028;-74
2022/10/12 10:44:25;;;;;;;0.10;0.10;;;;;;;17.80;66.89;102304.91;5027451;28;20032;-75
2022/10/12 10:46:51;;;;;;;0.10;0.10;;;;;;;17.48;61.99;102309.34;5045667;28;20231;-75
2022/10/12 10:49:47;;;;;;;0.10;0.10;;;;;;;17.46;61.00;102311.34;5026555;28;20143;-76
2022/10/12 10:52:30;;;;;;;0.10;0.10;;;;;;;16.89;59.92;102288.88;5024369;28;20032;-76
2022/10/12 10:55:19;;;;;;;0.10;0.10;;;;;;;18.03;59.19;102315.69;5045672;28;20059;-74
2022/10/12 10:58:02;;;;;;;0.10;0.10;;;;;;;17.81;56.74;102310.19;5044230;28;20056;-74
2022/10/12 11:00:29;;;;;;;0.10;0.10;;;;;;;17.69;57.84;102292.25;5045737;28;20368;-74
2022/10/12 11:02:56;;;;;;;0.10;0.10;;;;;;;17.98;61.28;102302.47;5045256;28;20032;-74
2022/10/12 11:05:30;;;;;;;0.00;0.00;;;;;;;18.02;59.14;102294.94;5026741;28;20025;-74
2022/10/12 11:07:57;;;;;;;0.10;0.10;;;;;;;17.87;53.39;102272.63;5025336;28;20044;-74
2022/10/12 11:10:33;;;;;;;0.10;0.10;;;;;;;17.69;54.97;102289.53;5045076;28;20040;-75
2022/10/12 11:13:06;;;;;;;0.10;0.10;;;;;;;18.06;53.87;102294.53;5041290;28;20483;-74
2022/10/12 11:15:41;;;;;;;0.10;0.10;;;;;;;18.61;52.85;102287.94;5039182;28;20044;-79
2022/10/12 11:18:16;;;;;;;0.10;0.10;;;;;;;18.55;53.67;102294.78;5024979;28;20061;-78
2022/10/12 11:20:49;;;;;;;0.10;0.10;;;;;;;17.94;53.43;102262.97;5042717;28;20029;-76
2022/10/12 11:23:24;;;;;;;0.10;0.10;;;;;;;18.21;54.80;102265.13;5038051;28;20036;-81
2022/10/12 11:26:13;;;;;;;0.10;0.10;;;;;;;18.98;52.15;102267.44;5026626;28;20024;-77
2022/10/12 11:28:39;;;;;;;0.10;0.10;;;;;;;19.12;52.05;102237.09;5039993;28;20075;-75
2022/10/12 11:31:06;;;;;;;0.10;0.10;;;;;;;19.85;49.00;102256.69;5040515;28;20458;-81